Time;durP1;ratioP1;P1;durP2;ratioP2;P2;SDS_P1;SDS_P2;PMS_P1;PMS_P2;Temp;Humidity;BMP_temperature;BMP_pressure;BME280_temperature;BME280_humidity;BME280_pressure;Samples;Min_cycle;Max_cycle;Signal;HPM_P1;HPM_P2
2023/07/17 00:02:26;;;;;;;0.10;0.07;;;;;;;;;;5113626;28;20410;-60
2023/07/17 00:04:53;;;;;;;3.60;1.10;;;;;;;;;;5113499;28;20110;-61
2023/07/17 00:07:20;;;;;;;0.40;0.17;;;;;;;;;;5108942;28;20088;-61
2023/07/17 00:09:46;;;;;;;0.10;0.00;;;;;;;;;;5108072;28;20347;-61
2023/07/17 00:12:14;;;;;;;0.10;0.07;;;;;;;;;;5108304;28;20272;-61
2023/07/17 00:14:40;;;;;;;0.00;0.00;;;;;;;;;;5106889;28;20040;-61
2023/07/17 00:17:08;;;;;;;0.00;0.00;;;;;;;;;;5111096;28;20024;-61
2023/07/17 00:19:39;;;;;;;0.03;0.00;;;;;;;;;;5112041;28;20107;-61
2023/07/17 00:22:06;;;;;;;0.10;0.00;;;;;;;;;;5112207;28;20527;-61
2023/07/17 00:24:33;;;;;;;0.00;0.00;;;;;;;;;;5113234;28;20029;-61
2023/07/17 00:26:59;;;;;;;1.30;0.17;;;;;;;;;;5111654;28;20039;-61
2023/07/17 00:29:31;;;;;;;0.73;0.33;;;;;;;;;;5108967;28;20031;-61
2023/07/17 00:31:58;;;;;;;0.20;0.10;;;;;;;;;;5106548;28;20039;-61
2023/07/17 00:34:25;;;;;;;0.93;0.20;;;;;;;;;;5106577;28;20027;-61
2023/07/17 00:36:52;;;;;;;0.13;0.10;;;;;;;;;;5105822;28;20031;-61
2023/07/17 00:39:19;;;;;;;0.00;0.00;;;;;;;;;;5109163;28;20462;-61
2023/07/17 00:41:46;;;;;;;0.40;0.20;;;;;;;;;;5111314;28;20023;-61
2023/07/17 00:44:13;;;;;;;0.37;0.20;;;;;;;;;;5111296;28;20031;-61
2023/07/17 00:46:40;;;;;;;1.70;0.47;;;;;;;;;;5111473;28;20018;-61
2023/07/17 00:49:07;;;;;;;0.00;0.00;;;;;;;;;;5110976;28;20088;-61
2023/07/17 00:51:34;;;;;;;0.33;0.23;;;;;;;;;;5107380;28;20030;-61
2023/07/17 00:54:01;;;;;;;0.00;0.00;;;;;;;;;;5106213;28;20115;-61
2023/07/17 00:56:29;;;;;;;0.57;0.20;;;;;;;;;;5105711;28;20024;-60
2023/07/17 00:58:56;;;;;;;0.23;0.20;;;;;;;;;;5106300;28;20466;-60
2023/07/17 01:01:23;;;;;;;2.17;0.20;;;;;;;;;;5109031;28;20068;-61
2023/07/17 01:03:51;;;;;;;0.00;0.00;;;;;;;;;;5107196;28;20073;-61
2023/07/17 01:06:17;;;;;;;0.50;0.30;;;;;;;;;;5110704;28;20024;-61
2023/07/17 01:08:44;;;;;;;2.83;0.57;;;;;;;;;;5110968;28;20016;-61
2023/07/17 01:11:11;;;;;;;0.30;0.20;;;;;;;;;;5112535;28;20027;-60
2023/07/17 01:13:47;;;;;;;0.00;0.00;;;;;;;;;;5109502;28;20110;-61
2023/07/17 01:16:14;;;;;;;0.10;0.10;;;;;;;;;;5107167;28;20034;-63
2023/07/17 01:18:41;;;;;;;0.90;0.37;;;;;;;;;;5107003;28;20024;-60
2023/07/17 01:21:09;;;;;;;0.50;0.33;;;;;;;;;;5106837;28;20081;-61
2023/07/17 01:23:37;;;;;;;0.30;0.20;;;;;;;;;;5109903;28;20069;-61
2023/07/17 01:26:17;;;;;;;0.30;0.27;;;;;;;;;;5112133;28;20127;-61
2023/07/17 01:28:44;;;;;;;0.20;0.17;;;;;;;;;;5112666;28;20073;-61
2023/07/17 01:31:11;;;;;;;0.20;0.20;;;;;;;;;;5112229;28;20020;-60
2023/07/17 01:33:38;;;;;;;0.50;0.23;;;;;;;;;;5111390;28;20028;-60
2023/07/17 01:36:06;;;;;;;4.93;0.60;;;;;;;;;;5108820;28;20035;-61
2023/07/17 01:38:33;;;;;;;0.57;0.30;;;;;;;;;;5107348;28;20027;-60
2023/07/17 01:41:00;;;;;;;0.60;0.40;;;;;;;;;;5107466;28;20103;-60
2023/07/17 01:43:27;;;;;;;1.60;0.53;;;;;;;;;;5107428;28;20012;-61
2023/07/17 01:45:54;;;;;;;0.60;0.30;;;;;;;;;;5110073;28;20073;-60
2023/07/17 01:48:20;;;;;;;0.80;0.33;;;;;;;;;;5110324;28;20024;-61
2023/07/17 01:50:47;;;;;;;1.80;0.60;;;;;;;;;;5112433;28;20019;-61
2023/07/17 01:53:19;;;;;;;0.60;0.47;;;;;;;;;;5111209;28;20027;-60
2023/07/17 01:55:46;;;;;;;0.67;0.50;;;;;;;;;;5112408;28;20073;-61
2023/07/17 01:58:13;;;;;;;0.50;0.30;;;;;;;;;;5109178;28;20035;-60
2023/07/17 02:00:39;;;;;;;3.33;0.87;;;;;;;;;;5107261;28;20479;-60
2023/07/17 02:03:06;;;;;;;0.30;0.30;;;;;;;;;;5107125;28;20031;-60
2023/07/17 02:05:33;;;;;;;1.53;0.93;;;;;;;;;;5110742;28;20116;-61
2023/07/17 02:08:00;;;;;;;0.90;0.63;;;;;;;;;;5111984;28;20118;-60
2023/07/17 02:10:26;;;;;;;0.97;0.70;;;;;;;;;;5115551;28;20052;-60
2023/07/17 02:12:53;;;;;;;0.23;0.23;;;;;;;;;;5115684;28;20472;-60
2023/07/17 02:15:20;;;;;;;0.60;0.40;;;;;;;;;;5115689;28;20085;-61
2023/07/17 02:17:47;;;;;;;1.67;0.70;;;;;;;;;;5115889;28;20048;-60
2023/07/17 02:20:13;;;;;;;0.63;0.50;;;;;;;;;;5113232;28;20031;-61
2023/07/17 02:22:41;;;;;;;2.53;0.60;;;;;;;;;;5109794;28;20030;-60
2023/07/17 02:25:08;;;;;;;0.30;0.30;;;;;;;;;;5110694;28;20485;-60
2023/07/17 02:27:34;;;;;;;1.00;0.60;;;;;;;;;;5109519;28;20107;-60
2023/07/17 02:30:02;;;;;;;0.67;0.57;;;;;;;;;;5112011;28;20116;-60
2023/07/17 02:32:29;;;;;;;0.33;0.33;;;;;;;;;;5113789;28;20043;-58
2023/07/17 02:34:56;;;;;;;1.43;0.57;;;;;;;;;;5115169;28;20157;-59
2023/07/17 02:37:23;;;;;;;1.03;0.60;;;;;;;;;;5114765;28;20163;-59
2023/07/17 02:39:51;;;;;;;10.53;0.53;;;;;;;;;;5114292;28;20020;-57
2023/07/17 02:42:18;;;;;;;0.30;0.30;;;;;;;;;;5109845;28;20031;-61
2023/07/17 02:44:45;;;;;;;2.33;1.00;;;;;;;;;;5109588;28;20024;-61
2023/07/17 02:47:12;;;;;;;0.40;0.27;;;;;;;;;;5110032;28;20038;-63
2023/07/17 02:49:39;;;;;;;2.97;0.43;;;;;;;;;;5110213;28;20038;-62
2023/07/17 02:52:06;;;;;;;0.77;0.60;;;;;;;;;;5110684;28;20110;-61
2023/07/17 02:54:33;;;;;;;0.30;0.30;;;;;;;;;;5114685;28;20042;-60
2023/07/17 02:57:00;;;;;;;2.10;0.63;;;;;;;;;;5114825;28;20490;-60
2023/07/17 02:59:27;;;;;;;2.10;0.80;;;;;;;;;;5114812;28;20031;-60
2023/07/17 03:01:54;;;;;;;1.83;0.57;;;;;;;;;;5114239;28;20024;-61
2023/07/17 03:04:21;;;;;;;1.53;0.70;;;;;;;;;;5114014;28;20023;-61
2023/07/17 03:06:48;;;;;;;2.03;0.90;;;;;;;;;;5109728;28;20560;-61
2023/07/17 03:09:15;;;;;;;1.73;0.60;;;;;;;;;;5110002;28;20024;-61
2023/07/17 03:11:42;;;;;;;0.47;0.47;;;;;;;;;;5108943;28;20038;-61
2023/07/17 03:14:09;;;;;;;2.13;1.20;;;;;;;;;;5108928;28;20039;-61
2023/07/17 03:16:36;;;;;;;4.23;1.03;;;;;;;;;;5114165;28;20466;-62
2023/07/17 03:19:03;;;;;;;1.73;0.83;;;;;;;;;;5114306;28;20466;-61
2023/07/17 03:21:30;;;;;;;1.67;0.87;;;;;;;;;;5113650;28;20474;-62
2023/07/17 03:23:56;;;;;;;1.30;0.80;;;;;;;;;;5114125;28;20420;-62
2023/07/17 03:26:23;;;;;;;0.63;0.53;;;;;;;;;;5114510;28;20028;-61
2023/07/17 03:28:50;;;;;;;2.60;0.90;;;;;;;;;;5109142;28;20104;-61
2023/07/17 03:31:17;;;;;;;3.53;0.83;;;;;;;;;;5109373;28;20032;-61
2023/07/17 03:33:43;;;;;;;1.10;0.50;;;;;;;;;;5108693;28;20342;-61
2023/07/17 03:36:10;;;;;;;1.50;0.70;;;;;;;;;;5109300;28;20027;-61
2023/07/17 03:38:37;;;;;;;18.00;1.20;;;;;;;;;;5112247;28;20024;-61
2023/07/17 03:41:04;;;;;;;0.97;0.63;;;;;;;;;;5112464;28;20031;-61
2023/07/17 03:43:30;;;;;;;3.30;1.23;;;;;;;;;;5112861;28;20343;-61
2023/07/17 03:45:57;;;;;;;2.97;1.10;;;;;;;;;;5113711;28;20042;-61
2023/07/17 03:48:24;;;;;;;3.50;0.87;;;;;;;;;;5112060;28;20096;-61
2023/07/17 03:50:51;;;;;;;0.77;0.47;;;;;;;;;;5109765;28;20724;-61
2023/07/17 03:53:17;;;;;;;2.53;0.77;;;;;;;;;;5108784;28;20557;-61
2023/07/17 03:55:44;;;;;;;1.90;0.90;;;;;;;;;;5107826;28;20397;-61
2023/07/17 03:58:11;;;;;;;1.23;0.70;;;;;;;;;;5107819;28;20019;-61
2023/07/17 04:00:38;;;;;;;1.07;0.80;;;;;;;;;;5111595;28;20035;-61
2023/07/17 04:03:04;;;;;;;17.13;0.80;;;;;;;;;;5112208;28;20027;-62
2023/07/17 04:05:31;;;;;;;1.17;0.73;;;;;;;;;;5112753;28;20023;-61
2023/07/17 04:07:58;;;;;;;2.33;0.90;;;;;;;;;;5113555;28;20019;-61
2023/07/17 04:10:27;;;;;;;3.90;0.90;;;;;;;;;;5112673;28;20023;-61
2023/07/17 04:12:54;;;;;;;1.50;0.83;;;;;;;;;;5110301;28;20023;-61
2023/07/17 04:15:21;;;;;;;2.53;0.87;;;;;;;;;;5108417;28;20041;-61
2023/07/17 04:17:48;;;;;;;0.67;0.50;;;;;;;;;;5108665;28;20027;-61
2023/07/17 04:20:16;;;;;;;2.93;0.80;;;;;;;;;;5108223;28;20028;-61
2023/07/17 04:22:42;;;;;;;1.10;0.87;;;;;;;;;;5094659;28;20042;-61
2023/07/17 04:25:09;;;;;;;2.97;1.23;;;;;;;;;;5113026;28;20051;-61
2023/07/17 04:27:36;;;;;;;2.83;1.20;;;;;;;;;;5112471;28;20352;-61
2023/07/17 04:30:03;;;;;;;1.97;0.73;;;;;;;;;;5112870;28;20020;-61
2023/07/17 04:32:30;;;;;;;2.10;0.97;;;;;;;;;;5112978;28;20024;-61
2023/07/17 04:34:57;;;;;;;15.93;1.43;;;;;;;;;;5110740;28;20073;-61
2023/07/17 04:37:24;;;;;;;1.43;0.70;;;;;;;;;;5108006;28;20110;-61
2023/07/17 04:39:51;;;;;;;3.00;0.87;;;;;;;;;;5107773;28;20035;-61
2023/07/17 04:42:17;;;;;;;7.63;1.00;;;;;;;;;;5107855;28;20028;-61
2023/07/17 04:44:44;;;;;;;1.00;0.60;;;;;;;;;;5108622;28;20378;-61
2023/07/17 04:47:11;;;;;;;1.30;0.77;;;;;;;;;;5112621;28;20088;-61
2023/07/17 04:49:38;;;;;;;4.10;0.93;;;;;;;;;;5103160;28;20032;-61
2023/07/17 04:52:05;;;;;;;20.73;1.83;;;;;;;;;;5106787;28;20024;-62
2023/07/17 04:54:32;;;;;;;3.23;0.83;;;;;;;;;;5112379;28;20478;-59
2023/07/17 04:56:59;;;;;;;1.97;0.90;;;;;;;;;;5111299;28;20466;-60
2023/07/17 04:59:25;;;;;;;3.20;1.20;;;;;;;;;;5107154;28;20478;-60
2023/07/17 05:01:52;;;;;;;3.27;0.50;;;;;;;;;;5106019;28;20138;-60
2023/07/17 05:04:19;;;;;;;2.50;0.93;;;;;;;;;;5104840;28;20019;-60
2023/07/17 05:06:46;;;;;;;5.83;1.10;;;;;;;;;;5105942;28;20112;-60
2023/07/17 05:09:13;;;;;;;2.37;0.90;;;;;;;;;;5112471;28;20028;-59
2023/07/17 05:11:41;;;;;;;1.23;0.90;;;;;;;;;;5110920;28;20106;-60
2023/07/17 05:14:08;;;;;;;17.23;1.87;;;;;;;;;;5110320;28;20044;-59
2023/07/17 05:16:35;;;;;;;0.83;0.53;;;;;;;;;;5111004;28;20486;-60
2023/07/17 05:19:02;;;;;;;0.77;0.67;;;;;;;;;;5110845;28;20035;-60
2023/07/17 05:21:28;;;;;;;4.70;0.77;;;;;;;;;;5106605;28;20036;-59
2023/07/17 05:23:55;;;;;;;2.40;0.63;;;;;;;;;;5107194;28;20019;-59
2023/07/17 05:26:22;;;;;;;2.20;0.87;;;;;;;;;;5106778;28;20031;-60
2023/07/17 05:28:49;;;;;;;5.63;1.40;;;;;;;;;;5106811;28;20085;-59
2023/07/17 05:31:16;;;;;;;4.60;1.00;;;;;;;;;;5111907;28;20020;-59
2023/07/17 05:33:42;;;;;;;2.27;0.77;;;;;;;;;;5112009;28;20038;-59
2023/07/17 05:36:10;;;;;;;2.03;1.10;;;;;;;;;;5112344;28;20100;-60
2023/07/17 05:38:36;;;;;;;1.67;1.10;;;;;;;;;;5114165;28;20036;-59
2023/07/17 05:41:03;;;;;;;5.07;1.10;;;;;;;;;;5116105;28;20102;-59
2023/07/17 05:43:33;;;;;;;2.27;1.23;;;;;;;;;;5111455;28;20051;-59
2023/07/17 05:46:00;;;;;;;0.80;0.63;;;;;;;;;;5111043;28;20743;-59
2023/07/17 05:48:26;;;;;;;1.50;1.00;;;;;;;;;;5110958;28;20385;-59
2023/07/17 05:50:53;;;;;;;3.13;1.13;;;;;;;;;;5110724;28;20543;-60
2023/07/17 05:53:20;;;;;;;0.50;0.50;;;;;;;;;;5114947;28;20509;-59
2023/07/17 05:55:47;;;;;;;1.93;0.93;;;;;;;;;;5115954;28;20027;-59
2023/07/17 05:58:14;;;;;;;5.77;1.13;;;;;;;;;;5115973;28;20441;-59
2023/07/17 06:00:40;;;;;;;1.43;0.97;;;;;;;;;;5116091;28;20541;-59
2023/07/17 06:03:07;;;;;;;1.03;0.70;;;;;;;;;;5116018;28;20070;-59
2023/07/17 06:05:38;;;;;;;14.50;1.43;;;;;;;;;;5111440;28;20380;-59
2023/07/17 06:08:05;;;;;;;2.17;1.10;;;;;;;;;;5110487;28;20370;-60
2023/07/17 06:10:32;;;;;;;5.70;1.23;;;;;;;;;;5110610;28;20027;-59
2023/07/17 06:12:59;;;;;;;5.93;1.53;;;;;;;;;;5110137;28;20607;-59
2023/07/17 06:15:25;;;;;;;1.00;0.80;;;;;;;;;;5114169;28;20035;-59
2023/07/17 06:17:52;;;;;;;0.90;0.60;;;;;;;;;;5115829;28;20080;-59
2023/07/17 06:20:20;;;;;;;1.53;0.90;;;;;;;;;;5115701;28;20031;-59
2023/07/17 06:22:47;;;;;;;0.67;0.60;;;;;;;;;;5115572;28;20023;-59
2023/07/17 06:25:14;;;;;;;2.53;1.00;;;;;;;;;;5115297;28;20026;-59
2023/07/17 06:27:41;;;;;;;2.30;1.20;;;;;;;;;;5111321;28;20073;-60
2023/07/17 06:30:08;;;;;;;2.60;1.10;;;;;;;;;;5109709;28;20024;-60
2023/07/17 06:32:35;;;;;;;9.73;1.00;;;;;;;;;;5109964;28;20475;-59
2023/07/17 06:35:02;;;;;;;6.10;1.33;;;;;;;;;;5110037;28;20031;-60
2023/07/17 06:37:28;;;;;;;1.43;0.97;;;;;;;;;;5113224;28;20489;-59
2023/07/17 06:39:55;;;;;;;0.90;0.60;;;;;;;;;;5115295;28;20099;-60
2023/07/17 06:42:22;;;;;;;2.57;1.30;;;;;;;;;;5115330;28;20027;-59
2023/07/17 06:44:49;;;;;;;0.53;0.43;;;;;;;;;;5115247;28;20023;-59
2023/07/17 06:47:15;;;;;;;1.73;0.63;;;;;;;;;;5114879;28;20098;-59
2023/07/17 06:49:42;;;;;;;1.27;0.77;;;;;;;;;;5110632;28;20032;-60
2023/07/17 06:52:09;;;;;;;4.93;1.43;;;;;;;;;;5109672;28;20026;-60
2023/07/17 06:54:36;;;;;;;4.80;1.10;;;;;;;;;;5109711;28;20036;-59
2023/07/17 06:57:03;;;;;;;3.90;0.93;;;;;;;;;;5109444;28;20028;-59
2023/07/17 06:59:30;;;;;;;2.93;1.60;;;;;;;;;;5112273;28;20419;-59
2023/07/17 07:01:56;;;;;;;1.17;0.90;;;;;;;;;;5114874;28;20082;-59
2023/07/17 07:04:23;;;;;;;0.87;0.53;;;;;;;;;;5114480;28;20020;-60
2023/07/17 07:06:50;;;;;;;3.83;1.20;;;;;;;;;;5114895;28;20048;-60
2023/07/17 07:09:17;;;;;;;0.97;0.77;;;;;;;;;;5114452;28;20024;-59
2023/07/17 07:11:43;;;;;;;1.63;0.97;;;;;;;;;;5111997;28;20027;-60
2023/07/17 07:14:10;;;;;;;2.13;1.03;;;;;;;;;;5109073;28;20382;-59
2023/07/17 07:16:37;;;;;;;2.73;1.30;;;;;;;;;;5109139;28;20501;-59
2023/07/17 07:19:04;;;;;;;5.60;1.67;;;;;;;;;;5109082;28;20015;-60
2023/07/17 07:21:30;;;;;;;9.90;1.40;;;;;;;;;;5110798;28;20471;-59
2023/07/17 07:23:57;;;;;;;1.07;0.77;;;;;;;;;;5114612;28;20486;-59
2023/07/17 07:26:24;;;;;;;1.60;1.00;;;;;;;;;;5114331;28;20024;-59
2023/07/17 07:28:51;;;;;;;2.80;1.43;;;;;;;;;;5114385;28;20028;-59
2023/07/17 07:31:17;;;;;;;3.30;1.50;;;;;;;;;;5114279;28;20030;-59
2023/07/17 07:33:44;;;;;;;7.43;2.17;;;;;;;;;;5111695;28;20073;-60
2023/07/17 07:36:11;;;;;;;15.63;1.67;;;;;;;;;;5108828;28;20043;-59
2023/07/17 07:38:38;;;;;;;1.97;1.30;;;;;;;;;;5108616;28;20466;-59
2023/07/17 07:41:04;;;;;;;2.70;1.33;;;;;;;;;;5109071;28;20430;-60
2023/07/17 07:43:31;;;;;;;8.53;1.97;;;;;;;;;;5110082;28;20470;-59
2023/07/17 07:45:58;;;;;;;6.13;2.07;;;;;;;;;;5114118;28;20107;-59
2023/07/17 07:48:25;;;;;;;3.93;1.90;;;;;;;;;;5113853;28;20053;-60
2023/07/17 07:50:51;;;;;;;4.00;1.27;;;;;;;;;;5113889;28;20039;-59
2023/07/17 07:53:18;;;;;;;3.87;1.33;;;;;;;;;;5113704;28;20030;-59
2023/07/17 07:55:45;;;;;;;5.30;2.13;;;;;;;;;;5111725;28;20016;-59
2023/07/17 07:58:12;;;;;;;2.47;1.40;;;;;;;;;;5108324;28;20084;-59
2023/07/17 08:00:38;;;;;;;2.03;1.37;;;;;;;;;;5108127;28;20102;-59
2023/07/17 08:03:05;;;;;;;2.53;1.10;;;;;;;;;;5108516;28;20038;-59
2023/07/17 08:05:32;;;;;;;9.13;1.83;;;;;;;;;;5109039;28;20031;-59
2023/07/17 08:07:59;;;;;;;7.40;2.10;;;;;;;;;;5113209;28;20024;-59
2023/07/17 08:10:26;;;;;;;3.13;1.20;;;;;;;;;;5113493;28;20103;-59
2023/07/17 08:12:53;;;;;;;3.20;1.60;;;;;;;;;;5113226;28;20035;-60
2023/07/17 08:15:19;;;;;;;4.57;1.73;;;;;;;;;;5113420;28;20085;-59
2023/07/17 08:17:46;;;;;;;3.77;2.00;;;;;;;;;;5112337;28;20019;-59
2023/07/17 08:20:13;;;;;;;6.27;1.57;;;;;;;;;;5108110;28;20053;-59
2023/07/17 08:22:40;;;;;;;2.93;1.30;;;;;;;;;;5108044;28;20027;-59
2023/07/17 08:25:07;;;;;;;2.97;1.33;;;;;;;;;;5107977;28;20031;-59
2023/07/17 08:27:34;;;;;;;2.43;1.23;;;;;;;;;;5107944;28;20474;-59
2023/07/17 08:30:00;;;;;;;2.17;1.57;;;;;;;;;;5113022;28;20020;-59
2023/07/17 08:32:27;;;;;;;4.40;1.73;;;;;;;;;;5113277;28;20120;-59
2023/07/17 08:34:54;;;;;;;4.10;1.50;;;;;;;;;;5113090;28;20089;-59
2023/07/17 08:37:21;;;;;;;6.03;2.20;;;;;;;;;;5112959;28;20147;-59
2023/07/17 08:39:48;;;;;;;9.53;2.43;;;;;;;;;;5112441;28;20046;-59
2023/07/17 08:42:14;;;;;;;6.60;2.00;;;;;;;;;;5107643;28;20089;-60
2023/07/17 08:44:41;;;;;;;4.87;2.07;;;;;;;;;;5107463;28;20020;-59
2023/07/17 08:47:08;;;;;;;2.77;1.47;;;;;;;;;;5107542;28;20015;-59
2023/07/17 08:49:36;;;;;;;3.90;2.40;;;;;;;;;;5107411;28;20436;-59
2023/07/17 08:52:04;;;;;;;9.63;1.97;;;;;;;;;;5112579;28;20126;-59
2023/07/17 08:54:30;;;;;;;4.93;1.90;;;;;;;;;;5112826;28;20035;-59
2023/07/17 08:57:03;;;;;;;5.13;1.40;;;;;;;;;;5112680;28;20385;-59
2023/07/17 08:59:34;;;;;;;6.17;2.53;;;;;;;;;;5112379;28;20103;-59
2023/07/17 09:02:04;;;;;;;3.87;1.60;;;;;;;;;;5112647;28;20521;-60
2023/07/17 09:04:31;;;;;;;3.83;1.73;;;;;;;;;;5107405;28;20103;-59
2023/07/17 09:06:58;;;;;;;5.67;2.13;;;;;;;;;;5107399;28;20020;-59
2023/07/17 09:09:25;;;;;;;5.47;2.03;;;;;;;;;;5107479;28;20034;-59
2023/07/17 09:12:07;;;;;;;9.33;1.93;;;;;;;;;;5107340;28;20037;-59
2023/07/17 09:14:35;;;;;;;12.27;2.70;;;;;;;;;;5116045;28;20114;-60
2023/07/17 09:17:03;;;;;;;5.40;2.13;;;;;;;;;;5117089;28;20024;-59
2023/07/17 09:19:33;;;;;;;2.67;1.50;;;;;;;;;;5116611;28;20057;-59
2023/07/17 09:22:00;;;;;;;4.00;1.50;;;;;;;;;;5116837;28;20024;-59
2023/07/17 09:24:27;;;;;;;1.80;1.13;;;;;;;;;;5116234;28;20024;-59
2023/07/17 09:26:58;;;;;;;1.80;1.27;;;;;;;;;;5111402;28;20031;-60
2023/07/17 09:29:25;;;;;;;5.43;1.97;;;;;;;;;;5111288;28;20024;-59
2023/07/17 09:31:52;;;;;;;2.63;1.33;;;;;;;;;;5111048;28;20027;-59
2023/07/17 09:34:19;;;;;;;4.10;1.67;;;;;;;;;;5111015;28;20103;-59
2023/07/17 09:36:50;;;;;;;6.37;2.00;;;;;;;;;;5116522;28;20360;-60
2023/07/17 09:39:17;;;;;;;12.90;2.47;;;;;;;;;;5116304;28;20382;-60
2023/07/17 09:41:44;;;;;;;2.63;1.57;;;;;;;;;;5116183;28;20023;-59
2023/07/17 09:44:17;;;;;;;2.37;1.40;;;;;;;;;;5116344;28;20024;-59
2023/07/17 09:46:45;;;;;;;3.80;1.97;;;;;;;;;;5115560;28;20521;-59
2023/07/17 09:49:12;;;;;;;4.33;1.27;;;;;;;;;;5110698;28;20055;-59
2023/07/17 09:51:39;;;;;;;2.00;1.50;;;;;;;;;;5110919;28;20084;-59
2023/07/17 09:54:05;;;;;;;6.97;2.33;;;;;;;;;;5110816;28;20039;-59
2023/07/17 09:56:33;;;;;;;3.10;1.73;;;;;;;;;;5110894;28;20509;-59
2023/07/17 09:59:09;;;;;;;1.63;1.23;;;;;;;;;;5115995;28;20034;-59
2023/07/17 10:01:37;;;;;;;1.47;1.10;;;;;;;;;;5116142;28;20028;-59
2023/07/17 10:04:06;;;;;;;5.87;2.23;;;;;;;;;;5115997;28;20024;-59
2023/07/17 10:06:34;;;;;;;8.20;2.00;;;;;;;;;;5115822;28;20055;-59
2023/07/17 10:09:04;;;;;;;2.13;1.10;;;;;;;;;;5115235;28;20508;-59
2023/07/17 10:11:33;;;;;;;7.63;2.07;;;;;;;;;;5110379;28;20032;-59
2023/07/17 10:14:00;;;;;;;9.03;2.07;;;;;;;;;;5110519;28;20036;-59
2023/07/17 10:16:27;;;;;;;5.40;1.37;;;;;;;;;;5110361;28;20089;-59
2023/07/17 10:18:57;;;;;;;5.57;2.17;;;;;;;;;;5110479;28;20027;-59
2023/07/17 10:21:24;;;;;;;6.50;2.20;;;;;;;;;;5115808;28;20024;-60
2023/07/17 10:23:51;;;;;;;3.43;1.30;;;;;;;;;;5115443;28;20099;-59
2023/07/17 10:26:21;;;;;;;6.90;1.90;;;;;;;;;;5115409;28;20024;-59
2023/07/17 10:28:49;;;;;;;1.70;1.10;;;;;;;;;;5115313;28;20028;-59
2023/07/17 10:31:19;;;;;;;5.03;1.60;;;;;;;;;;5114829;28;20107;-60
2023/07/17 10:33:50;;;;;;;7.00;1.70;;;;;;;;;;5109871;28;20034;-59
2023/07/17 10:36:17;;;;;;;15.67;2.17;;;;;;;;;;5110167;28;20026;-59
2023/07/17 10:38:50;;;;;;;1.90;1.20;;;;;;;;;;5110074;28;20423;-60
2023/07/17 10:41:17;;;;;;;2.13;1.27;;;;;;;;;;5109823;28;20065;-59
2023/07/17 10:44:08;;;;;;;4.10;1.93;;;;;;;;;;5115375;28;20027;-59
2023/07/17 10:46:36;;;;;;;5.60;2.07;;;;;;;;;;5115315;28;20019;-59
2023/07/17 10:49:09;;;;;;;2.17;1.27;;;;;;;;;;5114649;28;20032;-59
2023/07/17 10:51:56;;;;;;;6.53;1.63;;;;;;;;;;5115150;28;20559;-59
2023/07/17 10:54:24;;;;;;;3.67;1.57;;;;;;;;;;5112142;28;20464;-59
2023/07/17 10:56:51;;;;;;;8.43;1.80;;;;;;;;;;5109488;28;20080;-59
2023/07/17 10:59:19;;;;;;;2.43;1.27;;;;;;;;;;5108863;28;20031;-59
2023/07/17 11:01:46;;;;;;;2.77;1.63;;;;;;;;;;5109398;28;20095;-59
2023/07/17 11:04:13;;;;;;;4.30;1.93;;;;;;;;;;5111362;28;20019;-59
2023/07/17 11:06:40;;;;;;;2.60;1.13;;;;;;;;;;5114788;28;20016;-59
2023/07/17 11:09:07;;;;;;;2.23;1.50;;;;;;;;;;5114565;28;20032;-59
2023/07/17 11:11:34;;;;;;;4.03;2.07;;;;;;;;;;5114749;28;20027;-59
2023/07/17 11:14:01;;;;;;;3.17;1.90;;;;;;;;;;5114499;28;20409;-59
2023/07/17 11:16:28;;;;;;;1.80;1.20;;;;;;;;;;5112199;28;20050;-59
2023/07/17 11:18:56;;;;;;;1.10;0.90;;;;;;;;;;5109123;28;20356;-59
2023/07/17 11:21:23;;;;;;;2.63;1.70;;;;;;;;;;5109148;28;20093;-59
2023/07/17 11:23:51;;;;;;;8.87;1.23;;;;;;;;;;5109152;28;20015;-59
2023/07/17 11:26:21;;;;;;;3.57;1.67;;;;;;;;;;5110416;28;20027;-60
2023/07/17 11:28:49;;;;;;;14.77;1.33;;;;;;;;;;5114163;28;20102;-59
2023/07/17 11:31:23;;;;;;;14.23;2.70;;;;;;;;;;5113647;28;20528;-59
2023/07/17 11:33:59;;;;;;;3.90;1.40;;;;;;;;;;5114260;28;20038;-59
2023/07/17 11:36:26;;;;;;;2.70;1.47;;;;;;;;;;5113743;28;20051;-59
2023/07/17 11:38:57;;;;;;;2.07;0.87;;;;;;;;;;5111845;28;20030;-59
2023/07/17 11:41:25;;;;;;;4.27;1.17;;;;;;;;;;5108838;28;20051;-59
2023/07/17 11:43:58;;;;;;;2.10;1.37;;;;;;;;;;5108403;28;20059;-59
2023/07/17 11:46:26;;;;;;;6.03;1.23;;;;;;;;;;5108762;28;20097;-59
2023/07/17 11:48:53;;;;;;;1.03;0.77;;;;;;;;;;5110245;28;20032;-59
2023/07/17 11:51:24;;;;;;;2.23;1.23;;;;;;;;;;5114134;28;20404;-59
2023/07/17 11:53:55;;;;;;;7.13;1.00;;;;;;;;;;5113968;28;20020;-59
2023/07/17 11:56:22;;;;;;;3.03;1.27;;;;;;;;;;5113340;28;20103;-59
2023/07/17 11:58:52;;;;;;;5.10;1.67;;;;;;;;;;5113654;28;20015;-59
2023/07/17 12:01:19;;;;;;;2.33;1.23;;;;;;;;;;5110951;28;20026;-59
2023/07/17 12:03:46;;;;;;;3.77;0.93;;;;;;;;;;5108256;28;20032;-59
2023/07/17 12:06:13;;;;;;;3.10;0.87;;;;;;;;;;5108068;28;20023;-59
2023/07/17 12:08:41;;;;;;;2.47;1.33;;;;;;;;;;5108339;28;20416;-59
2023/07/17 12:11:08;;;;;;;1.40;0.83;;;;;;;;;;5109761;28;20080;-59
2023/07/17 12:13:34;;;;;;;0.97;0.73;;;;;;;;;;5113444;28;20022;-59
2023/07/17 12:16:01;;;;;;;1.97;0.93;;;;;;;;;;5113262;28;20398;-59
2023/07/17 12:18:28;;;;;;;3.47;1.57;;;;;;;;;;5113463;28;20023;-59
2023/07/17 12:20:55;;;;;;;1.87;0.97;;;;;;;;;;5113378;28;20024;-59
2023/07/17 12:23:23;;;;;;;2.43;0.73;;;;;;;;;;5110952;28;20050;-59
2023/07/17 12:25:50;;;;;;;4.47;1.83;;;;;;;;;;5107744;28;20031;-59
2023/07/17 12:28:17;;;;;;;2.83;1.40;;;;;;;;;;5107197;28;20039;-59
2023/07/17 12:30:44;;;;;;;3.57;1.23;;;;;;;;;;5107990;28;20058;-59
2023/07/17 12:33:11;;;;;;;2.30;1.27;;;;;;;;;;5109080;28;20104;-59
2023/07/17 12:35:40;;;;;;;1.40;1.07;;;;;;;;;;5113005;28;20366;-59
2023/07/17 12:38:07;;;;;;;3.10;1.40;;;;;;;;;;5112905;28;20027;-59
2023/07/17 12:40:34;;;;;;;3.37;1.57;;;;;;;;;;5112800;28;20423;-59
2023/07/17 12:43:01;;;;;;;3.00;1.73;;;;;;;;;;5113067;28;20024;-59
2023/07/17 12:45:27;;;;;;;2.83;1.53;;;;;;;;;;5110964;28;20027;-59
2023/07/17 12:47:54;;;;;;;2.20;1.37;;;;;;;;;;5106852;28;20386;-59
2023/07/17 12:50:21;;;;;;;2.83;1.80;;;;;;;;;;5107485;28;20084;-59
2023/07/17 12:52:48;;;;;;;1.30;0.93;;;;;;;;;;5107824;28;20102;-59
2023/07/17 12:55:14;;;;;;;4.93;1.77;;;;;;;;;;5108624;28;20049;-59
2023/07/17 12:57:41;;;;;;;3.57;1.73;;;;;;;;;;5112543;28;20490;-59
2023/07/17 13:00:08;;;;;;;16.37;1.67;;;;;;;;;;5112755;28;20371;-59
2023/07/17 13:02:35;;;;;;;4.00;1.13;;;;;;;;;;5112736;28;20031;-59
2023/07/17 13:05:02;;;;;;;1.40;0.90;;;;;;;;;;5112804;28;20030;-59
2023/07/17 13:07:29;;;;;;;6.57;1.50;;;;;;;;;;5111199;28;20031;-59
2023/07/17 13:09:55;;;;;;;2.00;0.97;;;;;;;;;;5107473;28;20051;-59
2023/07/17 13:12:23;;;;;;;4.00;1.83;;;;;;;;;;5107340;28;20027;-59
2023/07/17 13:14:50;;;;;;;5.13;1.43;;;;;;;;;;5107073;28;20125;-59
2023/07/17 13:17:17;;;;;;;3.57;1.47;;;;;;;;;;5107479;28;20023;-59
2023/07/17 13:19:45;;;;;;;4.50;1.30;;;;;;;;;;5112666;28;20028;-59
2023/07/17 13:22:12;;;;;;;2.87;1.17;;;;;;;;;;5112732;28;20356;-60
2023/07/17 13:24:39;;;;;;;3.93;1.70;;;;;;;;;;5112531;28;20049;-59
2023/07/17 13:27:06;;;;;;;2.57;1.53;;;;;;;;;;5112519;28;20027;-59
2023/07/17 13:29:33;;;;;;;2.30;1.00;;;;;;;;;;5111758;28;20024;-59
2023/07/17 13:32:00;;;;;;;1.33;1.10;;;;;;;;;;5107194;28;20566;-59
2023/07/17 13:34:30;;;;;;;6.60;1.40;;;;;;;;;;5106546;28;20119;-59
2023/07/17 13:36:56;;;;;;;5.40;1.83;;;;;;;;;;5107256;28;20028;-60
2023/07/17 13:39:24;;;;;;;6.17;1.83;;;;;;;;;;5107244;28;20024;-59
2023/07/17 13:41:51;;;;;;;3.47;1.73;;;;;;;;;;5112484;28;20365;-59
2023/07/17 13:44:19;;;;;;;3.23;1.53;;;;;;;;;;5112417;28;20049;-59
2023/07/17 13:46:49;;;;;;;2.63;1.63;;;;;;;;;;5112347;28;20432;-59
2023/07/17 13:49:16;;;;;;;3.37;1.57;;;;;;;;;;5111642;28;20027;-59
2023/07/17 13:51:47;;;;;;;3.33;2.23;;;;;;;;;;5111603;28;20478;-59
2023/07/17 13:54:14;;;;;;;13.83;2.10;;;;;;;;;;5106728;28;20043;-60
2023/07/17 13:56:41;;;;;;;3.83;0.97;;;;;;;;;;5106941;28;20490;-59
2023/07/17 13:59:09;;;;;;;1.43;1.07;;;;;;;;;;5107852;28;20047;-59
2023/07/17 14:01:37;;;;;;;2.30;1.10;;;;;;;;;;5110849;28;20035;-60
2023/07/17 14:04:04;;;;;;;1.33;0.93;;;;;;;;;;5115623;28;20015;-60
2023/07/17 14:06:31;;;;;;;2.77;1.57;;;;;;;;;;5115745;28;20024;-60
2023/07/17 14:08:58;;;;;;;3.00;1.60;;;;;;;;;;5116057;28;20020;-60
2023/07/17 14:11:25;;;;;;;4.57;1.13;;;;;;;;;;5115766;28;20023;-60
2023/07/17 14:13:51;;;;;;;1.30;0.77;;;;;;;;;;5115440;28;20031;-60
2023/07/17 14:16:18;;;;;;;2.50;0.90;;;;;;;;;;5110330;28;20024;-60
2023/07/17 14:18:45;;;;;;;25.70;0.90;;;;;;;;;;5110507;28;20027;-60
2023/07/17 14:21:12;;;;;;;1.10;0.80;;;;;;;;;;5110431;28;20043;-60
2023/07/17 14:23:39;;;;;;;0.40;0.30;;;;;;;;;;5110215;28;20525;-60
2023/07/17 14:26:06;;;;;;;1.50;0.90;;;;;;;;;;5115469;28;20023;-60
2023/07/17 14:28:33;;;;;;;1.67;0.77;;;;;;;;;;5115320;28;20031;-60
2023/07/17 14:31:02;;;;;;;0.77;0.67;;;;;;;;;;5115570;28;20027;-60
2023/07/17 14:33:30;;;;;;;2.20;1.00;;;;;;;;;;5115458;28;20030;-60
2023/07/17 14:35:56;;;;;;;1.57;0.80;;;;;;;;;;5114920;28;20106;-60
2023/07/17 14:38:23;;;;;;;1.17;0.77;;;;;;;;;;5110125;28;20031;-60
2023/07/17 14:40:50;;;;;;;1.60;0.70;;;;;;;;;;5109790;28;20150;-61
2023/07/17 14:43:17;;;;;;;7.43;1.43;;;;;;;;;;5109251;28;20032;-60
2023/07/17 14:45:43;;;;;;;3.97;1.30;;;;;;;;;;5106908;28;20047;-60